createdAt,value
2019-02-19T00:00:13.657Z,0.00
2019-02-19T00:01:13.626Z,0.00
2019-02-19T00:02:13.712Z,0.00
2019-02-19T00:03:13.623Z,0.00
2019-02-19T00:04:13.598Z,0.00
2019-02-19T00:05:13.592Z,0.00
2019-02-19T00:06:13.605Z,0.00
2019-02-19T00:07:13.683Z,0.00
2019-02-19T00:08:13.688Z,0.00
2019-02-19T00:09:13.543Z,0.00
2019-02-19T00:10:13.537Z,0.00
2019-02-19T00:11:13.520Z,0.00
2019-02-19T00:12:13.524Z,0.00
2019-02-19T00:13:13.570Z,0.00
2019-02-19T00:14:13.496Z,0.00
2019-02-19T00:15:13.481Z,0.00
2019-02-19T00:16:13.478Z,0.00
2019-02-19T00:17:13.475Z,0.00
2019-02-19T00:18:13.452Z,0.00
2019-02-19T00:19:13.519Z,0.00
2019-02-19T00:20:13.527Z,0.00
2019-02-19T00:21:13.420Z,0.00
2019-02-19T00:22:13.429Z,0.00
2019-02-19T00:23:13.400Z,0.00
2019-02-19T00:24:13.456Z,0.00
2019-02-19T00:25:13.391Z,0.00
2019-02-19T00:26:13.362Z,0.00
2019-02-19T00:27:13.353Z,0.00
2019-02-19T00:28:13.343Z,0.00
2019-02-19T00:29:13.419Z,0.00
2019-02-19T00:30:13.324Z,0.00
2019-02-19T00:31:13.318Z,0.00
2019-02-19T00:32:13.298Z,0.00
2019-02-19T00:33:13.288Z,0.00
2019-02-19T00:34:13.270Z,0.00
2019-02-19T00:35:13.411Z,0.00
2019-02-19T00:36:13.262Z,0.00
2019-02-19T00:37:13.236Z,0.00
2019-02-19T00:38:13.244Z,0.00
2019-02-19T00:39:13.221Z,0.00
2019-02-19T00:40:13.208Z,0.00
2019-02-19T00:41:13.275Z,0.00
2019-02-19T00:42:13.224Z,0.00
2019-02-19T00:43:13.176Z,0.00
2019-02-19T00:44:13.662Z,0.00
2019-02-19T00:45:16.718Z,0.00
2019-02-19T00:46:13.147Z,0.00
2019-02-19T00:47:13.208Z,0.00
2019-02-19T00:48:13.152Z,0.00
2019-02-19T00:49:13.110Z,0.00
2019-02-19T00:50:13.101Z,0.00
2019-02-19T00:51:13.100Z,0.00
2019-02-19T00:52:13.082Z,0.00
2019-02-19T00:53:13.159Z,0.00
2019-02-19T00:54:13.167Z,0.00
2019-02-19T00:55:13.047Z,0.00
2019-02-19T00:56:13.046Z,0.00
2019-02-19T00:57:13.018Z,0.00
2019-02-19T00:58:13.066Z,0.00
2019-02-19T00:59:13.061Z,0.00
2019-02-19T01:00:12.983Z,0.00
2019-02-19T01:01:13.081Z,0.00
2019-02-19T01:02:12.972Z,0.00
2019-02-19T01:03:12.971Z,0.00
2019-02-19T01:04:13.003Z,0.00
2019-02-19T01:05:12.941Z,0.00
2019-02-19T01:06:12.951Z,0.00
2019-02-19T01:07:13.007Z,0.00
2019-02-19T01:08:12.916Z,0.00
2019-02-19T01:09:12.893Z,0.00
2019-02-19T01:10:12.888Z,0.00
2019-02-19T01:11:12.906Z,0.00
2019-02-19T01:12:12.856Z,0.00
2019-02-19T01:13:12.977Z,0.00
2019-02-19T01:14:12.849Z,0.00
2019-02-19T01:15:12.838Z,0.00
2019-02-19T01:16:12.858Z,0.00
2019-02-19T01:17:12.874Z,0.00
2019-02-19T01:18:12.801Z,0.00
2019-02-19T01:19:12.861Z,0.00
2019-02-19T01:20:12.780Z,0.00
2019-02-19T01:21:12.771Z,0.00
2019-02-19T01:22:12.750Z,0.00
2019-02-19T01:23:12.782Z,0.00
2019-02-19T01:24:12.783Z,0.00
2019-02-19T01:25:12.811Z,0.00
2019-02-19T01:26:12.712Z,0.00
2019-02-19T01:27:12.681Z,0.00
2019-02-19T01:28:12.756Z,0.00
2019-02-19T01:29:12.664Z,0.00
2019-02-19T01:30:12.655Z,0.00
2019-02-19T01:31:12.777Z,0.00
2019-02-19T01:32:12.839Z,0.00
2019-02-19T01:33:12.657Z,0.00
2019-02-19T01:34:12.838Z,0.00
2019-02-19T01:35:12.651Z,0.00
2019-02-19T01:36:12.643Z,0.00
2019-02-19T01:37:12.831Z,0.00
2019-02-19T01:38:12.731Z,0.00
2019-02-19T01:39:12.691Z,0.00
2019-02-19T01:40:12.620Z,0.00
2019-02-19T01:41:12.550Z,0.00
2019-02-19T01:42:12.562Z,0.00
2019-02-19T01:43:13.546Z,0.00
2019-02-19T01:44:13.113Z,0.00
2019-02-19T01:45:12.705Z,0.00
2019-02-19T01:46:12.505Z,0.00
2019-02-19T01:47:12.462Z,0.00
2019-02-19T01:48:12.509Z,0.00
2019-02-19T01:49:12.572Z,0.00
2019-02-19T01:50:12.468Z,0.00
2019-02-19T01:51:12.439Z,0.00
2019-02-19T01:52:12.436Z,0.00
2019-02-19T01:53:12.411Z,0.00
2019-02-19T01:54:12.422Z,0.00
2019-02-19T01:55:12.569Z,0.00
2019-02-19T01:56:12.372Z,0.00
2019-02-19T01:57:12.375Z,0.00
2019-02-19T01:58:12.345Z,0.00
2019-02-19T01:59:12.341Z,0.00
2019-02-19T02:00:12.795Z,0.00
2019-02-19T02:01:12.463Z,0.00
2019-02-19T02:02:12.316Z,0.00
2019-02-19T02:03:12.286Z,0.00
2019-02-19T02:04:12.454Z,0.00
2019-02-19T02:05:12.300Z,0.00
2019-02-19T02:06:12.250Z,0.00
2019-02-19T02:07:12.375Z,0.00
2019-02-19T02:08:12.283Z,0.00
2019-02-19T02:09:12.216Z,0.00
2019-02-19T02:10:12.226Z,0.00
2019-02-19T02:11:12.213Z,0.00
2019-02-19T02:12:12.203Z,0.00
2019-02-19T02:13:12.236Z,0.00
2019-02-19T02:14:12.177Z,0.00
2019-02-19T02:15:12.155Z,0.00
2019-02-19T02:16:12.149Z,0.00
2019-02-19T02:17:12.151Z,0.00
2019-02-19T02:18:12.133Z,0.00
2019-02-19T02:19:12.182Z,0.00
2019-02-19T02:20:12.188Z,0.00
2019-02-19T02:21:12.117Z,0.00
2019-02-19T02:22:12.233Z,0.00
2019-02-19T02:23:12.111Z,0.00
2019-02-19T02:24:12.063Z,0.00
2019-02-19T02:25:12.059Z,0.00
2019-02-19T02:26:12.046Z,0.00
2019-02-19T02:27:12.039Z,0.00
2019-02-19T02:28:12.076Z,0.00
2019-02-19T02:29:12.004Z,0.00
2019-02-19T02:30:12.008Z,0.00
2019-02-19T02:31:11.993Z,0.00
2019-02-19T02:32:11.967Z,0.00
2019-02-19T02:33:12.001Z,0.00
2019-02-19T02:34:12.029Z,0.00
2019-02-19T02:35:11.945Z,0.00
2019-02-19T02:36:11.927Z,0.00
2019-02-19T02:37:11.923Z,0.00
2019-02-19T02:38:11.905Z,0.00
2019-02-19T02:39:11.908Z,0.00
2019-02-19T02:40:11.999Z,0.00
2019-02-19T02:41:11.871Z,0.00
2019-02-19T02:42:11.888Z,0.00
2019-02-19T02:43:11.859Z,0.00
2019-02-19T02:44:11.856Z,0.00
2019-02-19T02:45:11.917Z,0.00
2019-02-19T02:46:11.917Z,0.00
2019-02-19T02:47:11.811Z,0.00
2019-02-19T02:48:11.796Z,0.00
2019-02-19T02:49:11.788Z,0.00
2019-02-19T02:50:11.780Z,0.00
2019-02-19T02:51:11.763Z,0.00
2019-02-19T02:52:11.837Z,0.00
2019-02-19T02:53:11.746Z,0.00
2019-02-19T02:54:11.753Z,0.00
2019-02-19T02:55:11.742Z,0.00
2019-02-19T02:56:11.755Z,0.00
2019-02-19T02:57:11.705Z,0.00
2019-02-19T02:58:11.757Z,0.00
2019-02-19T02:59:11.679Z,0.00
2019-02-19T03:00:11.672Z,0.00
2019-02-19T03:01:11.701Z,0.00
2019-02-19T03:02:11.728Z,0.00
2019-02-19T03:03:11.709Z,0.00
2019-02-19T03:04:11.629Z,0.00
2019-02-19T03:05:11.617Z,0.00
2019-02-19T03:06:11.633Z,0.00
2019-02-19T03:07:11.950Z,0.00
2019-02-19T03:08:11.577Z,0.00
2019-02-19T03:09:11.570Z,0.00
2019-02-19T03:10:11.570Z,0.00
2019-02-19T03:11:11.575Z,0.00
2019-02-19T03:12:11.571Z,0.00
2019-02-19T03:13:11.571Z,0.00
2019-02-19T03:14:11.499Z,0.00
2019-02-19T03:15:11.504Z,0.00
2019-02-19T03:16:11.492Z,0.00
2019-02-19T03:17:11.489Z,0.00
2019-02-19T03:18:13.497Z,0.00
2019-02-19T03:19:11.534Z,0.00
2019-02-19T03:20:11.476Z,0.00
2019-02-19T03:21:11.430Z,0.00
2019-02-19T03:22:11.435Z,0.00
2019-02-19T03:23:11.410Z,0.00
2019-02-19T03:24:11.435Z,0.00
2019-02-19T03:25:11.671Z,0.00
2019-02-19T03:26:11.372Z,0.00
2019-02-19T03:27:11.363Z,0.00
2019-02-19T03:28:11.388Z,0.00
2019-02-19T03:29:11.355Z,0.00
2019-02-19T03:30:11.340Z,0.00
2019-02-19T03:31:11.370Z,0.00
2019-02-19T03:32:11.369Z,0.00
2019-02-19T03:33:11.301Z,0.00
2019-02-19T03:34:11.309Z,0.00
2019-02-19T03:35:11.287Z,0.00
2019-02-19T03:36:11.350Z,0.00
2019-02-19T03:37:11.255Z,0.00
2019-02-19T03:38:11.236Z,0.00
2019-02-19T03:39:11.241Z,0.00
2019-02-19T03:40:11.252Z,0.00
2019-02-19T03:41:11.206Z,0.00
2019-02-19T03:42:11.296Z,0.00
2019-02-19T03:43:11.176Z,0.00
2019-02-19T03:44:11.192Z,0.00
2019-02-19T03:45:11.190Z,0.00
2019-02-19T03:46:12.624Z,0.00
2019-02-19T03:47:11.140Z,0.00
2019-02-19T03:48:11.199Z,0.00
2019-02-19T03:49:11.120Z,0.00
2019-02-19T03:50:11.164Z,0.00
2019-02-19T03:51:11.216Z,0.00
2019-02-19T03:52:11.099Z,0.00
2019-02-19T03:53:11.073Z,0.00
2019-02-19T03:54:11.064Z,0.00
2019-02-19T03:55:11.077Z,0.00
2019-02-19T03:56:11.046Z,0.00
2019-02-19T03:57:11.161Z,0.00
2019-02-19T03:58:11.021Z,0.00
2019-02-19T03:59:11.016Z,0.00
2019-02-19T04:00:11.160Z,0.00
2019-02-19T04:01:10.999Z,0.00
2019-02-19T04:02:10.986Z,0.00
2019-02-19T04:03:10.987Z,0.00
2019-02-19T04:04:10.950Z,0.00
2019-02-19T04:05:10.939Z,0.00
2019-02-19T04:06:11.023Z,0.00
2019-02-19T04:07:10.932Z,0.00
2019-02-19T04:08:10.932Z,0.00
2019-02-19T04:09:10.902Z,0.00
2019-02-19T04:10:10.914Z,0.00
2019-02-19T04:11:10.867Z,0.00
2019-02-19T04:12:10.961Z,0.00
2019-02-19T04:13:10.980Z,0.00
2019-02-19T04:14:10.872Z,0.00
2019-02-19T04:15:10.828Z,0.00
2019-02-19T04:16:10.818Z,0.00
2019-02-19T04:17:10.834Z,0.00
2019-02-19T04:18:10.882Z,0.00
2019-02-19T04:19:10.794Z,0.00
2019-02-19T04:20:10.868Z,0.00
2019-02-19T04:21:10.783Z,0.00
2019-02-19T04:22:10.749Z,0.00
2019-02-19T04:23:10.753Z,0.00
2019-02-19T04:24:10.743Z,0.00
2019-02-19T04:25:10.721Z,0.00
2019-02-19T04:26:10.790Z,0.00
2019-02-19T04:27:10.719Z,0.00
2019-02-19T04:28:10.683Z,0.00
2019-02-19T04:29:10.679Z,0.00
2019-02-19T04:30:10.674Z,0.00
2019-02-19T04:31:10.683Z,0.00
2019-02-19T04:32:10.772Z,0.00
2019-02-19T04:33:10.721Z,0.00
2019-02-19T04:34:10.664Z,0.00
2019-02-19T04:35:10.843Z,0.00
2019-02-19T04:36:10.645Z,0.00
2019-02-19T04:37:10.604Z,0.00
2019-02-19T04:38:10.581Z,0.00
2019-02-19T04:39:10.716Z,0.00
2019-02-19T04:40:10.558Z,0.00
2019-02-19T04:41:10.555Z,0.00
2019-02-19T04:42:10.561Z,0.00
2019-02-19T04:43:10.525Z,0.00
2019-02-19T04:44:10.533Z,0.00
2019-02-19T04:45:10.600Z,0.00
2019-02-19T04:46:10.501Z,0.00
2019-02-19T04:47:10.494Z,0.00
2019-02-19T04:48:10.483Z,0.00
2019-02-19T04:49:10.464Z,0.00
2019-02-19T04:50:10.557Z,0.00
2019-02-19T04:51:10.452Z,0.00
2019-02-19T04:52:10.438Z,0.00
2019-02-19T04:53:10.597Z,0.00
2019-02-19T04:54:10.676Z,0.00
2019-02-19T04:55:10.390Z,0.00
2019-02-19T04:56:10.393Z,0.00
2019-02-19T04:57:10.374Z,0.00
2019-02-19T04:58:10.353Z,0.00
2019-02-19T04:59:10.446Z,0.00
2019-02-19T05:00:10.330Z,0.00
2019-02-19T05:01:10.324Z,0.00
2019-02-19T05:02:10.333Z,0.00
2019-02-19T05:03:10.309Z,0.00
2019-02-19T05:04:10.374Z,0.00
2019-02-19T05:05:10.280Z,0.00
2019-02-19T05:06:10.383Z,0.00
2019-02-19T05:07:10.291Z,0.00
2019-02-19T05:08:10.255Z,0.00
2019-02-19T05:09:10.241Z,0.00
2019-02-19T05:10:10.220Z,0.00
2019-02-19T05:11:10.231Z,0.00
2019-02-19T05:12:10.286Z,0.00
2019-02-19T05:13:10.219Z,0.00
2019-02-19T05:14:10.192Z,0.00
2019-02-19T05:15:10.187Z,0.00
2019-02-19T05:16:10.234Z,0.00
2019-02-19T05:17:10.254Z,0.00
2019-02-19T05:18:10.151Z,0.00
2019-02-19T05:19:10.151Z,0.00
2019-02-19T05:20:10.145Z,0.00
2019-02-19T05:21:10.099Z,0.00
2019-02-19T05:22:10.104Z,0.00
2019-02-19T05:23:10.250Z,0.00
2019-02-19T05:24:10.077Z,0.00
2019-02-19T05:25:10.064Z,0.00
2019-02-19T05:26:10.063Z,0.00
2019-02-19T05:27:10.180Z,0.00
2019-02-19T05:28:10.022Z,0.00
2019-02-19T05:29:10.022Z,0.00
2019-02-19T05:30:10.020Z,0.00
2019-02-19T05:31:10.009Z,0.00
2019-02-19T05:32:09.983Z,0.00
2019-02-19T05:33:10.067Z,0.00
2019-02-19T05:34:09.962Z,0.00
2019-02-19T05:35:09.951Z,0.00
2019-02-19T05:36:09.949Z,0.00
2019-02-19T05:37:09.952Z,0.00
2019-02-19T05:38:09.923Z,0.00
2019-02-19T05:39:09.959Z,0.00
2019-02-19T05:40:09.923Z,0.00
2019-02-19T05:41:09.886Z,0.00
2019-02-19T05:42:09.885Z,0.00
2019-02-19T05:43:09.907Z,0.00
2019-02-19T05:44:09.842Z,0.00
2019-02-19T05:45:09.917Z,0.00
2019-02-19T05:46:09.837Z,0.00
2019-02-19T05:47:09.826Z,0.00
2019-02-19T05:48:09.833Z,0.00
2019-02-19T05:49:09.792Z,0.00
2019-02-19T05:50:09.787Z,0.00
2019-02-19T05:51:09.877Z,0.00
2019-02-19T05:52:09.753Z,0.00
2019-02-19T05:53:09.789Z,0.00
2019-02-19T05:54:09.759Z,0.00
2019-02-19T05:55:09.726Z,0.00
2019-02-19T05:56:09.824Z,0.00
2019-02-19T05:57:09.707Z,0.00
2019-02-19T05:58:09.701Z,0.00
2019-02-19T05:59:09.702Z,0.00
2019-02-19T06:00:09.692Z,0.00
2019-02-19T06:01:09.674Z,5.62
2019-02-19T06:02:09.728Z,5.62
2019-02-19T06:03:09.735Z,5.62
2019-02-19T06:04:09.649Z,5.62
2019-02-19T06:05:09.644Z,5.62
2019-02-19T06:06:09.631Z,5.62
2019-02-19T06:07:09.673Z,11.25
2019-02-19T06:08:09.591Z,11.25
2019-02-19T06:09:09.665Z,11.25
2019-02-19T06:10:09.599Z,11.25
2019-02-19T06:11:09.557Z,11.25
2019-02-19T06:12:09.595Z,11.25
2019-02-19T06:13:09.534Z,11.25
2019-02-19T06:14:10.504Z,16.88
2019-02-19T06:15:09.572Z,16.88
2019-02-19T06:16:09.948Z,16.88
2019-02-19T06:17:09.511Z,16.88
2019-02-19T06:18:09.480Z,22.50
2019-02-19T06:19:10.437Z,22.50
2019-02-19T06:20:09.997Z,22.50
2019-02-19T06:21:09.453Z,28.12
2019-02-19T06:22:09.525Z,28.12
2019-02-19T06:23:09.572Z,28.12
2019-02-19T06:24:09.409Z,33.75
2019-02-19T06:25:09.470Z,33.75
2019-02-19T06:26:09.631Z,39.38
2019-02-19T06:27:09.392Z,39.38
2019-02-19T06:28:09.401Z,45.00
2019-02-19T06:29:09.521Z,50.62
2019-02-19T06:30:09.352Z,50.62
2019-02-19T06:31:09.326Z,56.25
2019-02-19T06:32:09.334Z,56.25
2019-02-19T06:33:09.328Z,56.25
2019-02-19T06:34:09.446Z,61.88
2019-02-19T06:35:09.285Z,67.50
2019-02-19T06:36:09.286Z,67.50
2019-02-19T06:37:09.369Z,78.75
2019-02-19T06:38:09.328Z,73.12
2019-02-19T06:39:09.270Z,78.75
2019-02-19T06:40:09.325Z,78.75
2019-02-19T06:41:09.232Z,78.75
2019-02-19T06:42:09.222Z,84.38
2019-02-19T06:43:09.216Z,84.38
2019-02-19T06:44:09.204Z,84.38
2019-02-19T06:45:16.142Z,90.00
2019-02-19T06:46:09.325Z,90.00
2019-02-19T06:47:09.235Z,95.62
2019-02-19T06:48:09.167Z,95.62
2019-02-19T06:49:09.149Z,101.25
2019-02-19T06:50:09.163Z,101.25
2019-02-19T06:51:09.129Z,106.88
2019-02-19T06:52:09.178Z,106.88
2019-02-19T06:53:09.254Z,118.12
2019-02-19T06:54:09.091Z,118.12
2019-02-19T06:55:09.089Z,118.12
2019-02-19T06:56:09.077Z,123.75
2019-02-19T06:57:09.060Z,129.38
2019-02-19T06:58:09.110Z,129.38
2019-02-19T06:59:09.026Z,135.00
2019-02-19T07:00:09.038Z,140.62
2019-02-19T07:01:09.046Z,146.25
2019-02-19T07:02:09.015Z,151.88
2019-02-19T07:03:08.996Z,163.12
2019-02-19T07:04:09.042Z,163.12
2019-02-19T07:05:09.406Z,168.75
2019-02-19T07:06:08.964Z,174.38
2019-02-19T07:07:08.950Z,180.00
2019-02-19T07:08:08.940Z,185.62
2019-02-19T07:09:08.953Z,185.62
2019-02-19T07:10:08.990Z,191.25
2019-02-19T07:11:08.926Z,196.88
2019-02-19T07:12:08.921Z,196.88
2019-02-19T07:13:08.894Z,202.50
2019-02-19T07:14:08.901Z,202.50
2019-02-19T07:15:08.892Z,202.50
2019-02-19T07:16:18.238Z,208.12
2019-02-19T07:17:15.440Z,213.75
2019-02-19T07:18:09.851Z,208.12
2019-02-19T07:19:08.833Z,219.38
2019-02-19T07:20:08.814Z,230.62
2019-02-19T07:21:08.816Z,241.88
2019-02-19T07:22:08.765Z,241.88
2019-02-19T07:23:08.858Z,247.50
2019-02-19T07:24:08.756Z,253.12
2019-02-19T07:25:08.777Z,253.12
2019-02-19T07:26:08.807Z,258.75
2019-02-19T07:27:08.730Z,258.75
2019-02-19T07:28:08.715Z,258.75
2019-02-19T07:29:08.825Z,258.75
2019-02-19T07:30:08.707Z,258.75
2019-02-19T07:31:08.691Z,258.75
2019-02-19T07:32:08.695Z,264.38
2019-02-19T07:33:08.726Z,270.00
2019-02-19T07:34:08.650Z,270.00
2019-02-19T07:35:08.864Z,270.00
2019-02-19T07:36:08.634Z,270.00
2019-02-19T07:37:08.654Z,270.00
2019-02-19T07:38:08.730Z,270.00
2019-02-19T07:39:08.807Z,270.00
2019-02-19T07:40:08.583Z,281.25
2019-02-19T07:41:08.667Z,286.88
2019-02-19T07:42:08.566Z,281.25
2019-02-19T07:43:09.187Z,281.25
2019-02-19T07:44:08.541Z,275.62
2019-02-19T07:45:08.545Z,275.62
2019-02-19T07:46:08.616Z,281.25
2019-02-19T07:47:08.505Z,281.25
2019-02-19T07:48:08.506Z,281.25
2019-02-19T07:49:08.481Z,281.25
2019-02-19T07:50:08.477Z,281.25
2019-02-19T07:51:08.528Z,275.62
2019-02-19T07:52:08.607Z,281.25
2019-02-19T07:53:08.497Z,281.25
2019-02-19T07:54:08.460Z,286.88
2019-02-19T07:55:08.435Z,286.88
2019-02-19T07:56:08.579Z,286.88
2019-02-19T07:57:08.415Z,286.88
2019-02-19T07:58:09.220Z,286.88
2019-02-19T07:59:08.377Z,292.50
2019-02-19T08:00:08.375Z,292.50
2019-02-19T08:01:08.380Z,298.12
2019-02-19T08:02:08.422Z,303.75
2019-02-19T08:03:08.520Z,303.75
2019-02-19T08:04:08.391Z,309.38
2019-02-19T08:05:08.382Z,320.62
2019-02-19T08:06:08.366Z,326.25
2019-02-19T08:07:08.385Z,337.50
2019-02-19T08:08:08.462Z,337.50
2019-02-19T08:09:08.418Z,343.12
2019-02-19T08:10:08.351Z,348.75
2019-02-19T08:11:08.407Z,343.12
2019-02-19T08:12:08.345Z,348.75
2019-02-19T08:13:08.366Z,348.75
2019-02-19T08:14:08.463Z,354.38
2019-02-19T08:15:08.341Z,360.00
2019-02-19T08:16:08.417Z,365.62
2019-02-19T08:17:09.186Z,371.25
2019-02-19T08:18:08.540Z,376.88
2019-02-19T08:19:08.345Z,388.12
2019-02-19T08:20:15.383Z,405.00
2019-02-19T08:21:09.136Z,410.62
2019-02-19T08:22:08.380Z,416.25
2019-02-19T08:23:08.417Z,416.25
2019-02-19T08:24:08.585Z,416.25
2019-02-19T08:25:08.400Z,421.88
2019-02-19T08:26:08.341Z,438.75
2019-02-19T08:27:08.350Z,450.00
2019-02-19T08:28:08.317Z,444.38
2019-02-19T08:29:13.736Z,450.00
2019-02-19T08:30:10.997Z,455.62
2019-02-19T08:31:08.318Z,461.25
2019-02-19T08:32:08.337Z,450.00
2019-02-19T08:33:08.319Z,450.00
2019-02-19T08:34:08.321Z,450.00
2019-02-19T08:35:08.295Z,444.38
2019-02-19T08:36:08.605Z,450.00
2019-02-19T08:37:08.120Z,472.50
2019-02-19T08:38:07.954Z,495.00
2019-02-19T08:39:07.932Z,528.75
2019-02-19T08:40:07.944Z,500.62
2019-02-19T08:41:08.383Z,483.75
2019-02-19T08:42:07.908Z,483.75
2019-02-19T08:43:07.895Z,472.50
2019-02-19T08:44:08.486Z,472.50
2019-02-19T08:45:07.868Z,478.12
2019-02-19T08:46:07.877Z,489.38
2019-02-19T08:47:29.575Z,483.75
2019-02-19T08:48:07.956Z,455.62
2019-02-19T08:49:07.833Z,444.38
2019-02-19T08:50:07.841Z,433.12
2019-02-19T08:51:08.683Z,444.38
2019-02-19T08:52:07.800Z,427.50
2019-02-19T08:53:07.858Z,416.25
2019-02-19T08:54:07.806Z,393.75
2019-02-19T08:55:07.838Z,376.88
2019-02-19T08:56:07.759Z,337.50
2019-02-19T08:57:07.739Z,298.12
2019-02-19T08:58:07.758Z,270.00
2019-02-19T08:59:07.792Z,270.00
2019-02-19T09:00:07.697Z,281.25
2019-02-19T09:01:07.685Z,275.62
2019-02-19T09:02:07.673Z,292.50
2019-02-19T09:03:07.702Z,320.62
2019-02-19T09:04:07.681Z,326.25
2019-02-19T09:05:07.807Z,320.62
2019-02-19T09:06:07.642Z,360.00
2019-02-19T09:07:07.633Z,405.00
2019-02-19T09:08:07.628Z,444.38
2019-02-19T09:09:07.630Z,483.75
2019-02-19T09:10:07.596Z,511.88
2019-02-19T09:11:07.669Z,523.12
2019-02-19T09:12:07.573Z,517.50
2019-02-19T09:13:07.567Z,495.00
2019-02-19T09:14:07.560Z,472.50
2019-02-19T09:15:07.570Z,466.88
2019-02-19T09:16:08.283Z,450.00
2019-02-19T09:17:07.540Z,382.50
2019-02-19T09:19:19.585Z,264.38
2019-02-19T09:20:19.095Z,270.00
2019-02-19T09:21:19.084Z,309.38
2019-02-19T09:22:19.091Z,348.75
2019-02-19T09:23:19.096Z,343.12
2019-02-19T09:24:19.098Z,376.88
2019-02-19T09:25:19.249Z,427.50
2019-02-19T09:26:19.033Z,399.38
2019-02-19T09:27:19.017Z,371.25
2019-02-19T09:28:19.118Z,382.50
2019-02-19T09:29:19.030Z,399.38
2019-02-19T09:30:19.004Z,399.38
2019-02-19T09:31:18.984Z,376.88
2019-02-19T09:32:19.017Z,343.12
2019-02-19T09:33:18.957Z,360.00
2019-02-19T09:34:19.124Z,388.12
2019-02-19T09:35:18.957Z,382.50
2019-02-19T09:36:18.917Z,337.50
2019-02-19T09:37:19.012Z,365.62
2019-02-19T09:38:18.902Z,376.88
2019-02-19T09:39:18.894Z,275.62
2019-02-19T09:40:18.920Z,208.12
2019-02-19T09:41:18.919Z,180.00
2019-02-19T09:42:18.870Z,208.12
2019-02-19T09:43:18.930Z,219.38
2019-02-19T09:44:18.842Z,219.38
2019-02-19T09:45:18.839Z,213.75
2019-02-19T09:46:18.827Z,225.00
2019-02-19T09:47:18.834Z,213.75
2019-02-19T09:48:18.994Z,202.50
2019-02-19T09:49:18.777Z,191.25
2019-02-19T09:50:18.819Z,168.75
2019-02-19T09:51:18.778Z,157.50
2019-02-19T09:52:18.760Z,157.50
2019-02-19T09:53:18.765Z,157.50
2019-02-19T09:54:18.807Z,151.88
2019-02-19T09:55:18.717Z,180.00
2019-02-19T09:56:18.814Z,174.38
2019-02-19T09:57:18.720Z,191.25
2019-02-19T09:58:18.704Z,219.38
2019-02-19T09:59:18.722Z,208.12
2019-02-19T10:00:18.674Z,213.75
2019-02-19T10:01:18.651Z,275.62
2019-02-19T10:02:18.736Z,292.50
2019-02-19T10:03:18.635Z,281.25
2019-02-19T10:04:18.642Z,298.12
2019-02-19T10:05:18.620Z,343.12
2019-02-19T10:06:18.592Z,315.00
2019-02-19T10:07:19.426Z,247.50
2019-02-19T10:08:18.579Z,236.25
2019-02-19T10:09:18.566Z,247.50
2019-02-19T10:10:18.577Z,270.00
2019-02-19T10:11:19.974Z,331.88
2019-02-19T10:12:18.593Z,303.75
2019-02-19T10:13:18.727Z,275.62
2019-02-19T10:14:18.548Z,258.75
2019-02-19T10:15:18.539Z,247.50
2019-02-19T10:16:18.529Z,236.25
2019-02-19T10:17:18.533Z,230.62
2019-02-19T10:18:18.491Z,230.62
2019-02-19T10:19:18.676Z,196.88
2019-02-19T10:20:18.457Z,213.75
2019-02-19T10:21:18.454Z,247.50
2019-02-19T10:22:18.459Z,225.00
2019-02-19T10:23:18.407Z,196.88
2019-02-19T10:24:18.400Z,191.25
2019-02-19T10:25:18.554Z,196.88
2019-02-19T10:26:18.371Z,264.38
2019-02-19T10:27:18.375Z,303.75
2019-02-19T10:28:18.369Z,303.75
2019-02-19T10:29:18.400Z,286.88
2019-02-19T10:30:18.384Z,292.50
2019-02-19T10:31:19.176Z,331.88
2019-02-19T10:32:18.319Z,427.50
2019-02-19T10:33:18.307Z,450.00
2019-02-19T10:34:18.290Z,416.25
2019-02-19T10:35:18.278Z,410.62
2019-02-19T10:36:18.318Z,455.62
2019-02-19T10:37:18.374Z,455.62
2019-02-19T10:38:18.245Z,388.12
2019-02-19T10:39:18.310Z,331.88
2019-02-19T10:40:18.238Z,286.88
2019-02-19T10:41:18.221Z,236.25
2019-02-19T10:42:19.037Z,225.00
2019-02-19T10:43:18.196Z,219.38
2019-02-19T10:44:18.266Z,185.62
2019-02-19T10:45:18.165Z,157.50
2019-02-19T10:46:18.192Z,180.00
2019-02-19T10:47:18.143Z,208.12
2019-02-19T10:48:19.307Z,219.38
2019-02-19T10:49:18.129Z,264.38
2019-02-19T10:50:18.252Z,315.00
2019-02-19T10:51:18.191Z,337.50
2019-02-19T10:52:18.082Z,354.38
2019-02-19T10:53:18.076Z,382.50
2019-02-19T10:54:18.068Z,393.75
2019-02-19T10:55:18.160Z,399.38
2019-02-19T10:56:18.060Z,399.38
2019-02-19T10:57:18.047Z,393.75
2019-02-19T10:58:22.933Z,393.75
2019-02-19T10:59:19.015Z,376.88
2019-02-19T11:00:18.016Z,376.88
2019-02-19T11:01:18.140Z,376.88
2019-02-19T11:02:17.987Z,376.88
2019-02-19T11:03:18.177Z,371.25
2019-02-19T11:04:17.952Z,371.25
2019-02-19T11:05:18.010Z,382.50
2019-02-19T11:06:17.934Z,405.00
2019-02-19T11:07:17.926Z,421.88
2019-02-19T11:08:17.931Z,444.38
2019-02-19T11:09:18.003Z,450.00
2019-02-19T11:10:17.902Z,438.75
2019-02-19T11:11:17.881Z,427.50
2019-02-19T11:12:17.883Z,427.50
2019-02-19T11:13:17.892Z,433.12
2019-02-19T11:14:17.862Z,455.62
2019-02-19T11:15:17.981Z,455.62
2019-02-19T11:16:17.906Z,472.50
2019-02-19T11:17:19.811Z,511.88
2019-02-19T11:18:17.832Z,511.88
2019-02-19T11:19:17.794Z,500.62
2019-02-19T11:20:17.807Z,511.88
2019-02-19T11:21:19.897Z,506.25
2019-02-19T11:22:17.755Z,495.00
2019-02-19T11:23:17.761Z,478.12
2019-02-19T11:24:17.737Z,478.12
2019-02-19T11:25:17.737Z,455.62
2019-02-19T11:26:17.801Z,455.62
2019-02-19T11:27:17.704Z,421.88
2019-02-19T11:28:17.690Z,427.50
2019-02-19T11:29:17.675Z,461.25
2019-02-19T11:30:17.688Z,478.12
2019-02-19T11:31:17.694Z,489.38
2019-02-19T11:32:18.125Z,500.62
2019-02-19T11:33:17.739Z,506.25
2019-02-19T11:34:17.631Z,523.12
2019-02-19T11:35:17.656Z,540.00
2019-02-19T11:36:17.658Z,545.62
2019-02-19T11:37:17.597Z,551.25
2019-02-19T11:38:17.593Z,556.88
2019-02-19T11:39:17.633Z,551.25
2019-02-19T11:40:17.563Z,562.50
2019-02-19T11:41:17.554Z,579.38
2019-02-19T11:42:17.542Z,540.00
2019-02-19T11:43:17.678Z,534.38
2019-02-19T11:44:17.510Z,534.38
2019-02-19T11:45:17.622Z,568.12
2019-02-19T11:46:17.493Z,534.38
2019-02-19T11:47:17.487Z,472.50
2019-02-19T11:48:19.153Z,382.50
2019-02-19T11:49:24.034Z,427.50
2019-02-19T11:50:17.540Z,450.00
2019-02-19T11:51:17.435Z,455.62
2019-02-19T11:52:17.460Z,433.12
2019-02-19T11:53:17.423Z,410.62
2019-02-19T11:54:17.469Z,360.00
2019-02-19T11:55:17.465Z,281.25
2019-02-19T11:56:17.457Z,270.00
2019-02-19T11:57:17.455Z,264.38
2019-02-19T11:58:17.447Z,236.25
2019-02-19T11:59:17.358Z,298.12
2019-02-19T12:00:17.353Z,253.12
2019-02-19T12:01:17.349Z,258.75
2019-02-19T12:02:17.325Z,275.62
2019-02-19T12:03:17.406Z,309.38
2019-02-19T12:04:17.308Z,281.25
2019-02-19T12:05:17.299Z,270.00
2019-02-19T12:06:17.292Z,326.25
2019-02-19T12:07:17.264Z,348.75
2019-02-19T12:08:17.359Z,343.12
2019-02-19T12:09:17.283Z,393.75
2019-02-19T12:10:17.225Z,410.62
2019-02-19T12:11:17.424Z,461.25
2019-02-19T12:12:17.229Z,545.62
2019-02-19T12:13:17.204Z,517.50
2019-02-19T12:14:17.289Z,478.12
2019-02-19T12:15:19.199Z,562.50
2019-02-19T12:16:17.165Z,669.38
2019-02-19T12:17:17.164Z,658.12
2019-02-19T12:18:17.271Z,753.75
2019-02-19T12:19:17.127Z,703.12
2019-02-19T12:20:17.133Z,652.50
2019-02-19T12:21:17.118Z,641.25
2019-02-19T12:22:17.104Z,590.62
2019-02-19T12:23:17.117Z,663.75
2019-02-19T12:24:17.188Z,731.25
2019-02-19T12:25:17.118Z,753.75
2019-02-19T12:26:17.068Z,742.50
2019-02-19T12:27:17.042Z,624.38
2019-02-19T12:28:17.032Z,556.88
2019-02-19T12:29:17.181Z,506.25
2019-02-19T12:30:17.012Z,517.50
2019-02-19T12:31:16.998Z,511.88
2019-02-19T12:32:18.066Z,506.25
2019-02-19T12:33:16.979Z,511.88
2019-02-19T12:34:16.985Z,500.62
2019-02-19T12:35:17.073Z,472.50
2019-02-19T12:36:16.954Z,421.88
2019-02-19T12:37:16.941Z,450.00
2019-02-19T12:38:16.953Z,478.12
2019-02-19T12:39:16.919Z,489.38
2019-02-19T12:40:17.423Z,517.50
2019-02-19T12:41:17.023Z,506.25
2019-02-19T12:42:16.880Z,500.62
2019-02-19T12:43:16.881Z,489.38
2019-02-19T12:44:16.854Z,483.75
2019-02-19T12:45:16.852Z,472.50
2019-02-19T12:46:16.844Z,466.88
2019-02-19T12:47:16.907Z,466.88
2019-02-19T12:48:16.824Z,455.62
2019-02-19T12:49:16.819Z,444.38
2019-02-19T12:50:16.789Z,438.75
2019-02-19T12:51:16.789Z,438.75
2019-02-19T12:52:16.776Z,450.00
2019-02-19T12:53:16.902Z,472.50